createdAt,value
2023-03-17T00:00:37.932Z,4.78
2023-03-17T00:03:04.282Z,4.80
2023-03-17T00:05:30.601Z,4.79
2023-03-17T00:07:56.910Z,4.79
2023-03-17T00:10:23.218Z,4.73
2023-03-17T00:12:49.545Z,4.64
2023-03-17T00:15:15.884Z,4.59
2023-03-17T00:17:42.194Z,4.59
2023-03-17T00:20:08.500Z,4.59
2023-03-17T00:22:34.811Z,4.57
2023-03-17T00:25:01.134Z,4.57
2023-03-17T00:27:27.464Z,4.57
2023-03-17T00:29:53.785Z,4.47
2023-03-17T00:32:20.125Z,4.45
2023-03-17T00:34:46.446Z,4.49
2023-03-17T00:37:12.769Z,4.53
2023-03-17T00:39:39.109Z,4.49
2023-03-17T00:42:05.430Z,4.46
2023-03-17T00:44:31.755Z,4.48
2023-03-17T00:46:58.175Z,4.43
2023-03-17T00:49:24.522Z,4.44
2023-03-17T00:51:50.898Z,4.45
2023-03-17T00:54:17.258Z,4.47
2023-03-17T00:56:43.572Z,4.48
2023-03-17T00:59:09.884Z,4.46
2023-03-17T01:01:36.253Z,4.43
2023-03-17T01:04:02.599Z,4.43
2023-03-17T01:06:28.916Z,4.46
2023-03-17T01:08:55.461Z,4.40
2023-03-17T01:11:21.777Z,4.42
2023-03-17T01:13:48.101Z,4.42
2023-03-17T01:16:14.468Z,4.40
2023-03-17T01:18:40.849Z,4.32
2023-03-17T01:21:07.171Z,4.26
2023-03-17T01:23:33.494Z,4.27
2023-03-17T01:25:59.833Z,4.26
2023-03-17T01:28:26.161Z,4.27
2023-03-17T01:30:52.484Z,4.24
2023-03-17T01:33:18.808Z,4.27
2023-03-17T01:35:45.134Z,4.25
2023-03-17T01:38:11.440Z,4.29
2023-03-17T01:40:37.739Z,4.21
2023-03-17T01:43:04.046Z,4.25
2023-03-17T01:45:30.382Z,4.35
2023-03-17T01:47:56.741Z,4.40
2023-03-17T01:50:23.073Z,4.48
2023-03-17T01:52:49.390Z,4.49
2023-03-17T01:55:15.706Z,4.51
2023-03-17T01:57:42.035Z,4.50
2023-03-17T02:00:08.363Z,4.58
2023-03-17T02:02:34.699Z,4.67
2023-03-17T02:05:01.016Z,4.66
2023-03-17T02:07:27.320Z,4.70
2023-03-17T02:09:53.649Z,4.71
2023-03-17T02:12:19.964Z,4.74
2023-03-17T02:14:46.298Z,4.73
2023-03-17T02:17:12.614Z,4.69
2023-03-17T02:19:38.962Z,4.64
2023-03-17T02:22:05.308Z,4.59
2023-03-17T02:24:31.613Z,4.62
2023-03-17T02:26:57.911Z,4.65
2023-03-17T02:29:24.229Z,4.57
2023-03-17T02:31:50.542Z,4.52
2023-03-17T02:34:16.852Z,4.53
2023-03-17T02:36:43.198Z,4.56
2023-03-17T02:39:09.561Z,4.57
2023-03-17T02:41:35.861Z,4.48
2023-03-17T02:44:02.188Z,4.42
2023-03-17T02:46:28.610Z,4.39
2023-03-17T02:48:54.967Z,4.35
2023-03-17T02:51:21.284Z,4.26
2023-03-17T02:53:47.608Z,4.15
2023-03-17T02:56:13.926Z,4.15
2023-03-17T02:58:40.280Z,4.22
2023-03-17T03:01:06.705Z,4.22
2023-03-17T03:03:33.066Z,4.31
2023-03-17T03:06:01.541Z,4.29
2023-03-17T03:08:29.055Z,4.32
2023-03-17T03:10:55.402Z,4.36
2023-03-17T03:13:21.706Z,4.37
2023-03-17T03:15:48.141Z,4.41
2023-03-17T03:18:14.484Z,4.40
2023-03-17T03:20:40.788Z,4.33
2023-03-17T03:23:07.111Z,4.28
2023-03-17T03:25:33.437Z,4.28
2023-03-17T03:27:59.755Z,4.21
2023-03-17T03:30:26.066Z,4.16
2023-03-17T03:32:52.438Z,4.10
2023-03-17T03:35:18.809Z,3.98
2023-03-17T03:37:45.114Z,3.96
2023-03-17T03:40:11.438Z,3.97
2023-03-17T03:42:37.739Z,3.96
2023-03-17T03:45:04.040Z,3.96
2023-03-17T03:47:30.365Z,3.94
2023-03-17T03:49:56.708Z,3.96
2023-03-17T03:52:23.016Z,3.98
2023-03-17T03:54:49.310Z,4.00
2023-03-17T03:57:15.632Z,4.01
2023-03-17T03:59:41.959Z,4.04
2023-03-17T04:02:09.587Z,4.00
2023-03-17T04:04:36.148Z,3.96
2023-03-17T04:07:02.508Z,3.97
2023-03-17T04:09:28.816Z,3.96
2023-03-17T04:11:55.119Z,3.96
2023-03-17T04:14:21.445Z,3.88
2023-03-17T04:16:47.802Z,3.93
2023-03-17T04:19:14.165Z,3.92
2023-03-17T04:21:40.510Z,3.94
2023-03-17T04:24:06.827Z,3.92
2023-03-17T04:26:33.147Z,3.85
2023-03-17T04:28:59.459Z,3.78
2023-03-17T04:31:25.883Z,3.78
2023-03-17T04:33:52.241Z,3.70
2023-03-17T04:36:18.556Z,3.70
2023-03-17T04:38:44.888Z,3.69
2023-03-17T04:41:11.214Z,3.78
2023-03-17T04:43:37.530Z,3.82
2023-03-17T04:46:03.893Z,3.71
2023-03-17T04:48:30.254Z,3.70
2023-03-17T04:50:56.562Z,3.67
2023-03-17T04:53:22.865Z,3.72
2023-03-17T04:55:49.232Z,3.80
2023-03-17T04:58:29.558Z,3.87
2023-03-17T05:00:56.569Z,4.15
2023-03-17T05:03:27.216Z,4.17
2023-03-17T05:05:54.181Z,4.20
2023-03-17T05:08:20.507Z,4.19
2023-03-17T05:10:46.818Z,4.06
2023-03-17T05:13:13.154Z,3.89
2023-03-17T05:15:39.482Z,3.81
2023-03-17T05:18:05.819Z,3.83
2023-03-17T05:20:32.563Z,3.83
2023-03-17T05:22:59.116Z,3.81
2023-03-17T05:25:25.430Z,3.94
2023-03-17T05:27:51.757Z,3.96
2023-03-17T05:30:18.063Z,3.93
2023-03-17T05:32:44.423Z,3.84
2023-03-17T05:35:10.754Z,3.73
2023-03-17T05:37:37.061Z,3.69
2023-03-17T05:40:03.388Z,3.69
2023-03-17T05:42:29.702Z,3.66
2023-03-17T05:44:56.034Z,3.52
2023-03-17T05:47:22.340Z,3.45
2023-03-17T05:49:48.643Z,3.42
2023-03-17T05:52:14.966Z,3.45
2023-03-17T05:54:41.272Z,3.46
2023-03-17T05:57:07.585Z,3.43
2023-03-17T05:59:33.925Z,3.47
2023-03-17T06:02:00.321Z,3.52
2023-03-17T06:04:26.683Z,3.55
2023-03-17T06:06:53.024Z,3.52
2023-03-17T06:09:19.363Z,3.52
2023-03-17T06:11:45.691Z,3.44
2023-03-17T06:14:12.034Z,3.52
2023-03-17T06:16:38.352Z,3.57
2023-03-17T06:19:04.719Z,3.60
2023-03-17T06:21:31.063Z,3.65
2023-03-17T06:23:57.386Z,3.64
2023-03-17T06:26:23.713Z,3.71
2023-03-17T06:28:50.045Z,3.79
2023-03-17T06:31:16.430Z,3.90
2023-03-17T06:33:42.762Z,3.92
2023-03-17T06:36:09.176Z,3.95
2023-03-17T06:38:35.561Z,3.99
2023-03-17T06:41:01.886Z,4.15
2023-03-17T06:43:28.203Z,4.19
2023-03-17T06:45:54.521Z,4.32
2023-03-17T06:48:20.836Z,4.39
2023-03-17T06:50:47.145Z,4.52
2023-03-17T06:53:13.455Z,4.62
2023-03-17T06:55:39.790Z,4.79
2023-03-17T06:58:06.105Z,5.15
2023-03-17T07:00:32.419Z,5.34
2023-03-17T07:02:58.732Z,5.57
2023-03-17T07:05:25.056Z,5.70
2023-03-17T07:07:51.383Z,5.85
2023-03-17T07:10:17.701Z,5.92
2023-03-17T07:12:44.006Z,6.07
2023-03-17T07:15:10.346Z,6.15
2023-03-17T07:17:36.683Z,6.21
2023-03-17T07:20:03.019Z,6.28
2023-03-17T07:22:29.351Z,6.38
2023-03-17T07:24:55.664Z,6.41
2023-03-17T07:27:23.147Z,6.48
2023-03-17T07:29:49.569Z,6.52
2023-03-17T07:32:15.997Z,6.58
2023-03-17T07:34:42.319Z,6.66
2023-03-17T07:37:08.642Z,6.77
2023-03-17T07:39:34.978Z,6.88
2023-03-17T07:42:01.294Z,6.92
2023-03-17T07:44:27.652Z,6.96
2023-03-17T07:46:53.968Z,7.07
2023-03-17T07:49:34.045Z,7.01
2023-03-17T07:52:04.688Z,7.11
2023-03-17T07:54:31.000Z,7.18
2023-03-17T07:56:57.340Z,7.27
2023-03-17T07:59:23.652Z,7.26
2023-03-17T08:01:50.046Z,7.23
2023-03-17T08:04:16.366Z,7.19
2023-03-17T08:06:42.693Z,7.33
2023-03-17T08:09:09.010Z,7.31
2023-03-17T08:11:35.324Z,7.27
2023-03-17T08:14:01.652Z,7.27
2023-03-17T08:16:28.033Z,7.29
2023-03-17T08:18:54.396Z,7.37
2023-03-17T08:21:20.738Z,7.39
2023-03-17T08:23:47.068Z,7.44
2023-03-17T08:26:13.439Z,7.45
2023-03-17T08:28:39.788Z,7.48
2023-03-17T08:31:06.207Z,7.52
2023-03-17T08:33:32.616Z,7.52
2023-03-17T08:35:59.077Z,7.50
2023-03-17T08:38:25.445Z,7.49
2023-03-17T08:40:51.770Z,7.55
2023-03-17T08:43:18.106Z,7.60
2023-03-17T08:45:44.431Z,7.68
2023-03-17T08:48:10.736Z,7.79
2023-03-17T08:50:37.041Z,7.82
2023-03-17T08:53:03.370Z,7.92
2023-03-17T08:55:29.695Z,8.00
2023-03-17T08:57:56.013Z,7.98
2023-03-17T09:00:22.334Z,8.06
2023-03-17T09:02:48.710Z,8.13
2023-03-17T09:05:15.084Z,8.21
2023-03-17T09:07:41.506Z,8.27
2023-03-17T09:10:07.890Z,8.34
2023-03-17T09:12:34.388Z,8.23
2023-03-17T09:15:00.757Z,8.31
2023-03-17T09:17:27.079Z,8.38
2023-03-17T09:19:53.400Z,8.50
2023-03-17T09:22:19.710Z,8.63
2023-03-17T09:24:46.019Z,8.65
2023-03-17T09:27:12.364Z,8.65
2023-03-17T09:29:38.684Z,8.69
2023-03-17T09:32:05.013Z,8.77
2023-03-17T09:34:31.323Z,8.74
2023-03-17T09:36:57.661Z,8.76
2023-03-17T09:39:24.000Z,8.74
2023-03-17T09:41:50.335Z,8.93
2023-03-17T09:44:16.670Z,9.00
2023-03-17T09:46:43.074Z,9.07
2023-03-17T09:49:09.513Z,9.17
2023-03-17T09:51:35.844Z,9.23
2023-03-17T09:54:02.183Z,9.27
2023-03-17T09:56:28.522Z,9.34
2023-03-17T09:58:54.853Z,9.46
2023-03-17T10:01:21.186Z,9.57
2023-03-17T10:03:47.512Z,9.72
2023-03-17T10:06:13.824Z,9.72
2023-03-17T10:08:40.147Z,9.78
2023-03-17T10:11:06.450Z,9.83
2023-03-17T10:13:32.777Z,9.89
2023-03-17T10:15:59.100Z,10.09
2023-03-17T10:18:25.418Z,9.99
2023-03-17T10:20:51.825Z,10.05
2023-03-17T10:23:18.169Z,10.24
2023-03-17T10:25:44.509Z,10.27
2023-03-17T10:28:10.845Z,10.08
2023-03-17T10:30:37.191Z,10.22
2023-03-17T10:33:03.590Z,10.23
2023-03-17T10:35:30.187Z,10.31
2023-03-17T10:38:11.761Z,10.44
2023-03-17T10:40:40.013Z,10.52
2023-03-17T10:43:06.319Z,10.35
2023-03-17T10:45:32.619Z,10.58
2023-03-17T10:47:58.947Z,10.59
2023-03-17T10:50:25.287Z,10.63
2023-03-17T10:52:51.623Z,10.67
2023-03-17T10:55:17.940Z,10.95
2023-03-17T10:57:44.264Z,11.08
2023-03-17T11:00:10.594Z,11.16
2023-03-17T11:02:36.917Z,11.14
2023-03-17T11:05:03.223Z,11.30
2023-03-17T11:07:29.556Z,11.35
2023-03-17T11:09:55.891Z,11.41
2023-03-17T11:12:22.230Z,11.43
2023-03-17T11:14:48.548Z,11.24
2023-03-17T11:17:14.866Z,11.34
2023-03-17T11:19:41.186Z,11.51
2023-03-17T11:22:07.501Z,11.65
2023-03-17T11:24:33.849Z,11.73
2023-03-17T11:27:00.183Z,11.69
2023-03-17T11:29:26.493Z,11.68
2023-03-17T11:31:52.825Z,11.78
2023-03-17T11:34:19.157Z,11.74
2023-03-17T11:36:45.480Z,11.91
2023-03-17T11:39:11.829Z,11.97
2023-03-17T11:41:38.165Z,12.06
2023-03-17T11:44:04.482Z,11.86
2023-03-17T11:46:30.894Z,11.85
2023-03-17T11:48:57.268Z,12.00
2023-03-17T11:51:23.578Z,11.94
2023-03-17T11:53:49.899Z,12.06
2023-03-17T11:56:16.208Z,12.27
2023-03-17T11:58:42.542Z,12.08
2023-03-17T12:01:08.903Z,12.07
2023-03-17T12:03:35.287Z,12.22
2023-03-17T12:06:01.624Z,12.31
2023-03-17T12:08:27.924Z,12.25
2023-03-17T12:10:54.255Z,12.41
2023-03-17T12:13:20.600Z,12.36
2023-03-17T12:15:46.949Z,11.73
2023-03-17T12:18:13.337Z,11.96
2023-03-17T12:20:39.668Z,11.85
2023-03-17T12:23:05.978Z,11.93
2023-03-17T12:25:32.285Z,11.91
2023-03-17T12:27:58.610Z,11.88
2023-03-17T12:30:24.921Z,11.73
2023-03-17T12:32:51.327Z,11.85
2023-03-17T12:35:17.653Z,12.06
2023-03-17T12:37:43.955Z,12.13
2023-03-17T12:40:10.296Z,12.13
2023-03-17T12:42:36.608Z,12.18
2023-03-17T12:45:02.961Z,12.25
2023-03-17T12:47:29.276Z,12.39
2023-03-17T12:49:55.582Z,12.58
2023-03-17T12:52:21.930Z,12.68
2023-03-17T12:54:48.243Z,12.86
2023-03-17T12:57:14.602Z,12.77
2023-03-17T12:59:40.906Z,12.86
2023-03-17T13:02:07.333Z,12.85
2023-03-17T13:04:33.677Z,12.80
2023-03-17T13:06:59.988Z,12.58
2023-03-17T13:09:26.304Z,12.61
2023-03-17T13:11:52.618Z,12.70
2023-03-17T13:14:18.926Z,12.77
2023-03-17T13:16:45.241Z,12.76
2023-03-17T13:19:11.548Z,12.78
2023-03-17T13:21:37.874Z,12.90
2023-03-17T13:24:04.178Z,12.72
2023-03-17T13:26:30.483Z,12.82
2023-03-17T13:28:56.844Z,12.99
2023-03-17T13:31:23.224Z,12.95
2023-03-17T13:33:49.658Z,12.69
2023-03-17T13:36:15.978Z,12.80
2023-03-17T13:38:42.302Z,12.79
2023-03-17T13:41:08.642Z,12.91
2023-03-17T13:43:34.995Z,12.73
2023-03-17T13:46:01.315Z,12.88
2023-03-17T13:48:27.630Z,12.96
2023-03-17T13:50:53.940Z,13.02
2023-03-17T13:53:20.285Z,12.86
2023-03-17T13:55:46.669Z,12.83
2023-03-17T13:58:13.000Z,12.92
2023-03-17T14:00:39.376Z,13.03
2023-03-17T14:03:05.714Z,13.22
2023-03-17T14:05:32.466Z,13.45
2023-03-17T14:07:59.059Z,13.65
2023-03-17T14:10:25.393Z,13.76
2023-03-17T14:12:51.720Z,13.88
2023-03-17T14:15:18.047Z,13.79
2023-03-17T14:17:44.382Z,13.67
2023-03-17T14:20:10.687Z,13.87
2023-03-17T14:22:37.015Z,13.93
2023-03-17T14:25:03.345Z,13.90
2023-03-17T14:27:29.670Z,13.95
2023-03-17T14:29:56.004Z,14.04
2023-03-17T14:32:22.343Z,14.21
2023-03-17T14:34:48.664Z,14.22
2023-03-17T14:37:14.974Z,14.27
2023-03-17T14:39:41.291Z,14.40
2023-03-17T14:42:07.598Z,14.41
2023-03-17T14:44:33.928Z,14.39
2023-03-17T14:47:00.246Z,14.42
2023-03-17T14:49:26.563Z,14.44
2023-03-17T14:51:52.890Z,14.49
2023-03-17T14:54:19.239Z,14.49
2023-03-17T14:56:45.543Z,14.43
2023-03-17T14:59:11.851Z,14.50
2023-03-17T15:01:38.195Z,14.51
2023-03-17T15:04:04.509Z,14.69
2023-03-17T15:06:30.834Z,14.62
2023-03-17T15:08:57.150Z,14.80
2023-03-17T15:11:23.491Z,14.89
2023-03-17T15:13:49.798Z,14.87
2023-03-17T15:16:16.165Z,14.81
2023-03-17T15:18:42.549Z,14.69
2023-03-17T15:21:08.859Z,14.56
2023-03-17T15:23:35.162Z,14.35
2023-03-17T15:26:01.490Z,14.22
2023-03-17T15:28:27.829Z,14.23
2023-03-17T15:30:54.601Z,14.34
2023-03-17T15:33:21.248Z,14.41
2023-03-17T15:35:47.584Z,14.53
2023-03-17T15:38:13.960Z,14.53
2023-03-17T15:40:40.288Z,14.53
2023-03-17T15:43:06.613Z,14.54
2023-03-17T15:45:32.922Z,14.50
2023-03-17T15:47:59.245Z,14.49
2023-03-17T15:50:25.556Z,14.44
2023-03-17T15:52:51.870Z,14.45
2023-03-17T15:55:18.184Z,14.41
2023-03-17T15:57:53.855Z,14.33
2023-03-17T16:00:21.241Z,14.38
2023-03-17T16:02:47.571Z,14.45
2023-03-17T16:05:13.897Z,14.37
2023-03-17T16:07:40.223Z,14.43
2023-03-17T16:10:06.565Z,14.40
2023-03-17T16:12:32.879Z,14.40
2023-03-17T16:15:00.700Z,14.43
2023-03-17T16:17:28.241Z,14.44
2023-03-17T16:19:54.561Z,14.46
2023-03-17T16:22:20.886Z,14.33
2023-03-17T16:24:47.213Z,14.28
2023-03-17T16:27:13.526Z,14.27
2023-03-17T16:29:39.853Z,14.21
2023-03-17T16:32:06.164Z,14.13
2023-03-17T16:34:32.489Z,14.11
2023-03-17T16:36:58.819Z,14.02
2023-03-17T16:39:25.154Z,14.06
2023-03-17T16:41:51.516Z,14.08
2023-03-17T16:44:17.878Z,13.96
2023-03-17T16:46:44.222Z,14.00
2023-03-17T16:49:10.549Z,13.90
2023-03-17T16:51:36.872Z,13.86
2023-03-17T16:54:03.203Z,13.86
2023-03-17T16:56:29.564Z,13.81
2023-03-17T16:58:55.932Z,13.77
2023-03-17T17:01:22.280Z,13.76
2023-03-17T17:03:48.641Z,13.72
2023-03-17T17:06:14.958Z,13.69
2023-03-17T17:08:41.271Z,13.57
2023-03-17T17:11:07.664Z,13.54
2023-03-17T17:13:34.020Z,13.53
2023-03-17T17:16:00.416Z,13.52
2023-03-17T17:18:26.781Z,13.62
2023-03-17T17:20:53.136Z,13.52
2023-03-17T17:23:19.485Z,13.48
2023-03-17T17:25:45.822Z,13.35
2023-03-17T17:28:12.210Z,13.30
2023-03-17T17:30:38.549Z,13.25
2023-03-17T17:33:04.941Z,13.18
2023-03-17T17:35:32.714Z,13.11
2023-03-17T17:37:59.333Z,12.99
2023-03-17T17:40:25.663Z,12.86
2023-03-17T17:42:51.971Z,12.63
2023-03-17T17:45:18.270Z,12.55
2023-03-17T17:47:44.590Z,12.42
2023-03-17T17:50:10.910Z,12.27
2023-03-17T17:52:37.237Z,12.20
2023-03-17T17:55:03.565Z,12.02
2023-03-17T17:57:29.874Z,11.86
2023-03-17T17:59:56.175Z,11.81
2023-03-17T18:02:22.486Z,11.73
2023-03-17T18:04:48.844Z,11.63
2023-03-17T18:07:15.197Z,11.66
2023-03-17T18:09:41.514Z,11.56
2023-03-17T18:12:07.841Z,11.40
2023-03-17T18:14:34.148Z,11.30
2023-03-17T18:17:00.456Z,11.30
2023-03-17T18:19:26.773Z,11.20
2023-03-17T18:21:53.079Z,11.20
2023-03-17T18:24:19.397Z,11.15
2023-03-17T18:26:45.705Z,11.14
2023-03-17T18:29:12.046Z,11.12
2023-03-17T18:31:38.437Z,11.14
2023-03-17T18:34:04.778Z,11.08
2023-03-17T18:36:31.115Z,11.07
2023-03-17T18:38:57.434Z,11.08
2023-03-17T18:41:23.749Z,11.08
2023-03-17T18:43:50.078Z,11.09
2023-03-17T18:46:16.501Z,11.02
2023-03-17T18:48:42.834Z,10.93
2023-03-17T18:51:09.141Z,10.93
2023-03-17T18:53:35.472Z,11.01
2023-03-17T18:56:01.791Z,11.24
2023-03-17T18:58:28.118Z,11.42
2023-03-17T19:00:54.498Z,11.53
2023-03-17T19:03:20.931Z,11.58
2023-03-17T19:05:47.285Z,11.63
2023-03-17T19:08:13.614Z,11.54
2023-03-17T19:10:39.939Z,11.50
2023-03-17T19:13:06.621Z,11.49
2023-03-17T19:15:33.650Z,11.45
2023-03-17T19:17:59.958Z,11.33
2023-03-17T19:20:26.286Z,11.10
2023-03-17T19:22:52.591Z,10.88
2023-03-17T19:25:18.898Z,10.79
2023-03-17T19:27:45.237Z,10.60
2023-03-17T19:30:11.576Z,10.53
2023-03-17T19:32:37.977Z,10.51
2023-03-17T19:35:04.329Z,10.49
2023-03-17T19:37:30.639Z,10.40
2023-03-17T19:39:56.957Z,10.34
2023-03-17T19:42:23.287Z,10.31
2023-03-17T19:44:49.606Z,10.30
2023-03-17T19:47:15.937Z,10.37
2023-03-17T19:49:42.275Z,10.43
2023-03-17T19:52:08.608Z,10.40
2023-03-17T19:54:34.915Z,10.37
2023-03-17T19:57:01.249Z,10.41
2023-03-17T19:59:27.554Z,10.31
2023-03-17T20:01:53.901Z,10.22
2023-03-17T20:04:20.256Z,10.38
2023-03-17T20:06:46.597Z,10.49
2023-03-17T20:09:12.912Z,10.58
2023-03-17T20:11:39.242Z,10.57
2023-03-17T20:14:05.578Z,10.40
2023-03-17T20:16:31.899Z,10.24
2023-03-17T20:18:58.242Z,10.16
2023-03-17T20:21:24.560Z,10.17
2023-03-17T20:23:50.870Z,10.28
2023-03-17T20:26:17.196Z,10.51
2023-03-17T20:28:43.513Z,10.41
2023-03-17T20:31:09.959Z,10.26
2023-03-17T20:33:36.303Z,10.28
2023-03-17T20:36:02.733Z,10.04
2023-03-17T20:38:29.064Z,10.08
2023-03-17T20:40:55.371Z,10.12
2023-03-17T20:43:21.676Z,10.30
2023-03-17T20:45:48.002Z,10.49
2023-03-17T20:48:14.336Z,10.60
2023-03-17T20:50:40.673Z,10.69
2023-03-17T20:53:07.016Z,10.76
2023-03-17T20:55:33.342Z,10.99
2023-03-17T20:57:59.800Z,10.93
2023-03-17T21:00:26.234Z,10.75
2023-03-17T21:02:52.546Z,10.57
2023-03-17T21:05:18.967Z,10.56
2023-03-17T21:07:45.293Z,10.62
2023-03-17T21:10:11.613Z,10.73
2023-03-17T21:12:37.931Z,10.88
2023-03-17T21:15:04.238Z,10.89
2023-03-17T21:17:30.565Z,10.82
2023-03-17T21:19:56.885Z,10.92
2023-03-17T21:22:23.210Z,10.96
2023-03-17T21:24:49.529Z,10.91
2023-03-17T21:27:15.832Z,10.93
2023-03-17T21:29:42.142Z,10.81
2023-03-17T21:32:08.522Z,10.84
2023-03-17T21:34:34.926Z,10.80
2023-03-17T21:37:01.266Z,10.86
2023-03-17T21:39:29.522Z,10.80
2023-03-17T21:41:56.089Z,10.85
2023-03-17T21:44:22.404Z,10.93
2023-03-17T21:46:48.711Z,10.93
2023-03-17T21:49:15.020Z,10.84
2023-03-17T21:51:41.353Z,10.91
2023-03-17T21:54:07.670Z,10.90
2023-03-17T21:56:33.985Z,10.82
2023-03-17T21:59:00.314Z,10.86
2023-03-17T22:01:26.652Z,10.79
2023-03-17T22:03:52.969Z,10.72
2023-03-17T22:06:19.271Z,10.77
2023-03-17T22:08:45.681Z,10.77
2023-03-17T22:11:11.989Z,10.62
2023-03-17T22:13:38.298Z,10.62
2023-03-17T22:16:04.610Z,10.59
2023-03-17T22:18:30.913Z,10.59
2023-03-17T22:20:57.215Z,10.61
2023-03-17T22:23:23.533Z,10.58
2023-03-17T22:25:49.843Z,10.51
2023-03-17T22:28:16.161Z,10.49
2023-03-17T22:30:42.467Z,10.50
2023-03-17T22:33:08.915Z,10.53
2023-03-17T22:35:35.303Z,10.56
2023-03-17T22:38:01.657Z,10.55
2023-03-17T22:40:27.988Z,10.41
2023-03-17T22:42:54.319Z,10.34
2023-03-17T22:45:20.663Z,10.45
2023-03-17T22:47:46.986Z,10.47
2023-03-17T22:50:13.293Z,10.30
2023-03-17T22:52:39.628Z,10.06
2023-03-17T22:55:05.940Z,10.12
2023-03-17T22:57:32.251Z,10.15
2023-03-17T22:59:58.583Z,10.15
2023-03-17T23:02:24.930Z,10.18
2023-03-17T23:04:51.253Z,10.21
2023-03-17T23:07:17.569Z,10.16
2023-03-17T23:09:43.908Z,10.19
2023-03-17T23:12:10.217Z,10.21
2023-03-17T23:14:36.569Z,10.26
2023-03-17T23:17:02.897Z,10.30
2023-03-17T23:19:29.270Z,10.25
2023-03-17T23:21:55.590Z,10.29
2023-03-17T23:24:21.928Z,10.18
2023-03-17T23:26:48.234Z,10.27
2023-03-17T23:29:14.538Z,10.24
2023-03-17T23:31:40.842Z,10.13
2023-03-17T23:34:07.164Z,10.14
2023-03-17T23:36:33.499Z,10.15
2023-03-17T23:38:59.822Z,10.15
2023-03-17T23:41:26.142Z,10.07
2023-03-17T23:43:52.455Z,10.04
2023-03-17T23:46:18.940Z,10.15
2023-03-17T23:48:45.302Z,10.13
2023-03-17T23:51:11.619Z,10.09
2023-03-17T23:53:37.936Z,10.03
2023-03-17T23:56:04.298Z,9.94
2023-03-17T23:58:30.615Z,9.94
